sensor_id;sensor_type;location;lat;lon;timestamp;P1;durP1;ratioP1;P2;durP2;ratioP2
52322;SDS011;38263;52.920;6.238;2023-04-15T00:00:01;5.47;;;3.80;;
52322;SDS011;38263;52.920;6.238;2023-04-15T00:02:28;8.07;;;3.55;;
52322;SDS011;38263;52.920;6.238;2023-04-15T00:04:54;5.85;;;4.40;;
52322;SDS011;38263;52.920;6.238;2023-04-15T00:07:20;7.38;;;3.25;;
52322;SDS011;38263;52.920;6.238;2023-04-15T00:09:46;8.23;;;3.95;;
52322;SDS011;38263;52.920;6.238;2023-04-15T00:12:12;9.05;;;4.00;;
52322;SDS011;38263;52.920;6.238;2023-04-15T00:14:38;10.43;;;3.78;;
52322;SDS011;38263;52.920;6.238;2023-04-15T00:17:04;11.63;;;4.22;;
52322;SDS011;38263;52.920;6.238;2023-04-15T00:19:30;8.85;;;3.90;;
52322;SDS011;38263;52.920;6.238;2023-04-15T00:21:57;9.18;;;4.18;;
52322;SDS011;38263;52.920;6.238;2023-04-15T00:24:23;7.43;;;3.92;;
52322;SDS011;38263;52.920;6.238;2023-04-15T00:26:49;8.32;;;4.10;;
52322;SDS011;38263;52.920;6.238;2023-04-15T00:29:15;9.40;;;4.05;;
52322;SDS011;38263;52.920;6.238;2023-04-15T00:31:41;7.75;;;4.00;;
52322;SDS011;38263;52.920;6.238;2023-04-15T00:34:07;8.02;;;4.05;;
52322;SDS011;38263;52.920;6.238;2023-04-15T00:36:33;8.55;;;4.55;;
52322;SDS011;38263;52.920;6.238;2023-04-15T00:39:00;10.07;;;4.05;;
52322;SDS011;38263;52.920;6.238;2023-04-15T00:41:27;7.70;;;4.25;;
52322;SDS011;38263;52.920;6.238;2023-04-15T00:43:53;8.80;;;4.00;;
52322;SDS011;38263;52.920;6.238;2023-04-15T00:46:19;6.80;;;3.53;;
52322;SDS011;38263;52.920;6.238;2023-04-15T00:48:46;6.38;;;3.60;;
52322;SDS011;38263;52.920;6.238;2023-04-15T00:51:12;8.90;;;4.55;;
52322;SDS011;38263;52.920;6.238;2023-04-15T00:53:39;9.88;;;3.67;;
52322;SDS011;38263;52.920;6.238;2023-04-15T00:56:05;6.30;;;3.45;;
52322;SDS011;38263;52.920;6.238;2023-04-15T00:58:31;7.13;;;3.70;;
52322;SDS011;38263;52.920;6.238;2023-04-15T01:00:57;6.82;;;4.30;;
52322;SDS011;38263;52.920;6.238;2023-04-15T01:03:23;11.40;;;3.97;;
52322;SDS011;38263;52.920;6.238;2023-04-15T01:05:49;9.02;;;3.88;;
52322;SDS011;38263;52.920;6.238;2023-04-15T01:08:22;8.05;;;4.18;;
52322;SDS011;38263;52.920;6.238;2023-04-15T01:10:48;5.63;;;3.60;;
52322;SDS011;38263;52.920;6.238;2023-04-15T01:13:14;7.68;;;3.53;;
52322;SDS011;38263;52.920;6.238;2023-04-15T01:15:40;6.97;;;4.03;;
52322;SDS011;38263;52.920;6.238;2023-04-15T01:18:07;10.70;;;4.30;;
52322;SDS011;38263;52.920;6.238;2023-04-15T01:20:33;8.25;;;4.13;;
52322;SDS011;38263;52.920;6.238;2023-04-15T01:23:00;6.38;;;3.92;;
52322;SDS011;38263;52.920;6.238;2023-04-15T01:25:29;11.48;;;4.07;;
52322;SDS011;38263;52.920;6.238;2023-04-15T01:27:56;8.48;;;4.50;;
52322;SDS011;38263;52.920;6.238;2023-04-15T01:30:23;8.85;;;4.60;;
52322;SDS011;38263;52.920;6.238;2023-04-15T01:32:50;8.02;;;4.70;;
52322;SDS011;38263;52.920;6.238;2023-04-15T01:35:17;8.77;;;4.82;;
52322;SDS011;38263;52.920;6.238;2023-04-15T01:37:43;9.02;;;4.72;;
52322;SDS011;38263;52.920;6.238;2023-04-15T01:40:09;12.95;;;4.95;;
52322;SDS011;38263;52.920;6.238;2023-04-15T01:42:35;8.15;;;4.90;;
52322;SDS011;38263;52.920;6.238;2023-04-15T01:45:02;14.45;;;5.10;;
52322;SDS011;38263;52.920;6.238;2023-04-15T01:47:28;8.18;;;4.45;;
52322;SDS011;38263;52.920;6.238;2023-04-15T01:49:54;9.98;;;4.95;;
52322;SDS011;38263;52.920;6.238;2023-04-15T01:52:20;7.07;;;4.65;;
52322;SDS011;38263;52.920;6.238;2023-04-15T01:54:46;8.13;;;4.97;;
52322;SDS011;38263;52.920;6.238;2023-04-15T01:57:12;9.95;;;4.97;;
52322;SDS011;38263;52.920;6.238;2023-04-15T01:59:38;7.97;;;4.82;;
52322;SDS011;38263;52.920;6.238;2023-04-15T02:02:05;7.80;;;4.97;;
52322;SDS011;38263;52.920;6.238;2023-04-15T02:04:31;9.10;;;4.70;;
52322;SDS011;38263;52.920;6.238;2023-04-15T02:06:58;13.98;;;5.45;;
52322;SDS011;38263;52.920;6.238;2023-04-15T02:09:24;12.20;;;5.20;;
52322;SDS011;38263;52.920;6.238;2023-04-15T02:11:51;8.27;;;5.55;;
52322;SDS011;38263;52.920;6.238;2023-04-15T02:14:18;9.90;;;5.78;;
52322;SDS011;38263;52.920;6.238;2023-04-15T02:16:44;9.70;;;5.63;;
52322;SDS011;38263;52.920;6.238;2023-04-15T02:19:10;11.43;;;5.68;;
52322;SDS011;38263;52.920;6.238;2023-04-15T02:21:36;10.75;;;6.47;;
52322;SDS011;38263;52.920;6.238;2023-04-15T02:24:02;13.43;;;5.82;;
52322;SDS011;38263;52.920;6.238;2023-04-15T02:26:29;11.13;;;4.80;;
52322;SDS011;38263;52.920;6.238;2023-04-15T02:28:57;11.85;;;5.75;;
52322;SDS011;38263;52.920;6.238;2023-04-15T02:31:23;9.70;;;5.60;;
52322;SDS011;38263;52.920;6.238;2023-04-15T02:33:49;10.48;;;6.35;;
52322;SDS011;38263;52.920;6.238;2023-04-15T02:36:15;8.65;;;5.68;;
52322;SDS011;38263;52.920;6.238;2023-04-15T02:38:41;12.77;;;5.55;;
52322;SDS011;38263;52.920;6.238;2023-04-15T02:41:10;9.32;;;5.40;;
52322;SDS011;38263;52.920;6.238;2023-04-15T02:43:36;8.75;;;5.57;;
52322;SDS011;38263;52.920;6.238;2023-04-15T02:46:04;10.35;;;6.57;;
52322;SDS011;38263;52.920;6.238;2023-04-15T02:48:30;10.90;;;6.20;;
52322;SDS011;38263;52.920;6.238;2023-04-15T02:51:12;9.55;;;6.43;;
52322;SDS011;38263;52.920;6.238;2023-04-15T02:53:38;11.88;;;6.55;;
52322;SDS011;38263;52.920;6.238;2023-04-15T02:56:05;12.02;;;5.85;;
52322;SDS011;38263;52.920;6.238;2023-04-15T02:58:32;11.52;;;6.68;;
52322;SDS011;38263;52.920;6.238;2023-04-15T03:00:58;10.45;;;6.50;;
52322;SDS011;38263;52.920;6.238;2023-04-15T03:03:24;12.63;;;6.53;;
52322;SDS011;38263;52.920;6.238;2023-04-15T03:05:52;10.77;;;6.28;;
52322;SDS011;38263;52.920;6.238;2023-04-15T03:08:18;9.98;;;5.80;;
52322;SDS011;38263;52.920;6.238;2023-04-15T03:10:45;9.57;;;5.22;;
52322;SDS011;38263;52.920;6.238;2023-04-15T03:13:11;8.43;;;5.22;;
52322;SDS011;38263;52.920;6.238;2023-04-15T03:15:37;10.38;;;5.22;;
52322;SDS011;38263;52.920;6.238;2023-04-15T03:18:03;9.57;;;6.50;;
52322;SDS011;38263;52.920;6.238;2023-04-15T03:20:29;9.23;;;6.43;;
52322;SDS011;38263;52.920;6.238;2023-04-15T03:22:56;13.02;;;6.63;;
52322;SDS011;38263;52.920;6.238;2023-04-15T03:25:22;14.57;;;7.43;;
52322;SDS011;38263;52.920;6.238;2023-04-15T03:27:48;11.00;;;6.55;;
52322;SDS011;38263;52.920;6.238;2023-04-15T03:30:14;11.05;;;6.85;;
52322;SDS011;38263;52.920;6.238;2023-04-15T03:32:40;11.35;;;6.72;;
52322;SDS011;38263;52.920;6.238;2023-04-15T03:35:06;13.38;;;6.40;;
52322;SDS011;38263;52.920;6.238;2023-04-15T03:37:32;12.07;;;7.45;;
52322;SDS011;38263;52.920;6.238;2023-04-15T03:39:58;11.68;;;6.97;;
52322;SDS011;38263;52.920;6.238;2023-04-15T03:42:24;11.52;;;6.88;;
52322;SDS011;38263;52.920;6.238;2023-04-15T03:44:51;11.80;;;6.38;;
52322;SDS011;38263;52.920;6.238;2023-04-15T03:47:17;11.10;;;7.25;;
52322;SDS011;38263;52.920;6.238;2023-04-15T03:49:43;13.25;;;7.95;;
52322;SDS011;38263;52.920;6.238;2023-04-15T03:52:09;11.10;;;6.53;;
52322;SDS011;38263;52.920;6.238;2023-04-15T03:54:35;12.60;;;7.90;;
52322;SDS011;38263;52.920;6.238;2023-04-15T03:57:01;11.07;;;7.53;;
52322;SDS011;38263;52.920;6.238;2023-04-15T03:59:27;13.40;;;7.75;;
52322;SDS011;38263;52.920;6.238;2023-04-15T04:01:53;9.70;;;6.75;;
52322;SDS011;38263;52.920;6.238;2023-04-15T04:04:19;12.23;;;7.18;;
52322;SDS011;38263;52.920;6.238;2023-04-15T04:06:45;13.18;;;8.50;;
52322;SDS011;38263;52.920;6.238;2023-04-15T04:09:11;14.68;;;7.80;;
52322;SDS011;38263;52.920;6.238;2023-04-15T04:11:37;16.10;;;8.23;;
52322;SDS011;38263;52.920;6.238;2023-04-15T04:14:03;13.73;;;8.35;;
52322;SDS011;38263;52.920;6.238;2023-04-15T04:16:29;12.40;;;8.15;;
52322;SDS011;38263;52.920;6.238;2023-04-15T04:18:55;12.45;;;8.25;;
52322;SDS011;38263;52.920;6.238;2023-04-15T04:21:21;13.38;;;9.23;;
52322;SDS011;38263;52.920;6.238;2023-04-15T04:23:47;16.73;;;8.73;;
52322;SDS011;38263;52.920;6.238;2023-04-15T04:26:13;12.43;;;8.57;;
52322;SDS011;38263;52.920;6.238;2023-04-15T04:28:40;14.63;;;9.20;;
52322;SDS011;38263;52.920;6.238;2023-04-15T04:31:06;15.40;;;8.60;;
52322;SDS011;38263;52.920;6.238;2023-04-15T04:33:32;13.07;;;8.93;;
52322;SDS011;38263;52.920;6.238;2023-04-15T04:35:58;12.45;;;8.73;;
52322;SDS011;38263;52.920;6.238;2023-04-15T04:38:24;13.68;;;8.55;;
52322;SDS011;38263;52.920;6.238;2023-04-15T04:40:50;13.43;;;8.52;;
52322;SDS011;38263;52.920;6.238;2023-04-15T04:43:16;12.75;;;8.60;;
52322;SDS011;38263;52.920;6.238;2023-04-15T04:45:42;12.48;;;8.52;;
52322;SDS011;38263;52.920;6.238;2023-04-15T04:48:08;16.88;;;9.05;;
52322;SDS011;38263;52.920;6.238;2023-04-15T04:50:34;14.27;;;9.07;;
52322;SDS011;38263;52.920;6.238;2023-04-15T04:53:01;16.75;;;9.55;;
52322;SDS011;38263;52.920;6.238;2023-04-15T04:55:27;14.88;;;9.27;;
52322;SDS011;38263;52.920;6.238;2023-04-15T04:57:53;14.75;;;8.63;;
52322;SDS011;38263;52.920;6.238;2023-04-15T05:00:19;13.15;;;8.60;;
52322;SDS011;38263;52.920;6.238;2023-04-15T05:02:45;11.45;;;8.43;;
52322;SDS011;38263;52.920;6.238;2023-04-15T05:05:11;12.65;;;8.02;;
52322;SDS011;38263;52.920;6.238;2023-04-15T05:07:37;12.93;;;8.68;;
52322;SDS011;38263;52.920;6.238;2023-04-15T05:10:03;14.15;;;8.55;;
52322;SDS011;38263;52.920;6.238;2023-04-15T05:12:30;12.57;;;8.35;;
52322;SDS011;38263;52.920;6.238;2023-04-15T05:14:56;12.15;;;8.60;;
52322;SDS011;38263;52.920;6.238;2023-04-15T05:17:22;17.55;;;10.38;;
52322;SDS011;38263;52.920;6.238;2023-04-15T05:19:48;13.15;;;8.68;;
52322;SDS011;38263;52.920;6.238;2023-04-15T05:22:14;12.50;;;7.97;;
52322;SDS011;38263;52.920;6.238;2023-04-15T05:24:40;16.55;;;9.90;;
52322;SDS011;38263;52.920;6.238;2023-04-15T05:27:06;12.60;;;8.77;;
52322;SDS011;38263;52.920;6.238;2023-04-15T05:29:34;12.20;;;8.73;;
52322;SDS011;38263;52.920;6.238;2023-04-15T05:32:00;13.70;;;9.07;;
52322;SDS011;38263;52.920;6.238;2023-04-15T05:34:26;13.52;;;7.43;;
52322;SDS011;38263;52.920;6.238;2023-04-15T05:36:52;12.90;;;9.02;;
52322;SDS011;38263;52.920;6.238;2023-04-15T05:39:18;13.93;;;9.23;;
52322;SDS011;38263;52.920;6.238;2023-04-15T05:41:44;12.68;;;8.60;;
52322;SDS011;38263;52.920;6.238;2023-04-15T05:44:10;11.73;;;7.93;;
52322;SDS011;38263;52.920;6.238;2023-04-15T05:46:36;14.43;;;9.27;;
52322;SDS011;38263;52.920;6.238;2023-04-15T05:49:02;13.23;;;9.00;;
52322;SDS011;38263;52.920;6.238;2023-04-15T05:51:28;14.43;;;9.60;;
52322;SDS011;38263;52.920;6.238;2023-04-15T05:53:54;15.95;;;9.90;;
52322;SDS011;38263;52.920;6.238;2023-04-15T05:56:20;16.52;;;10.23;;
52322;SDS011;38263;52.920;6.238;2023-04-15T05:58:46;16.13;;;11.27;;
52322;SDS011;38263;52.920;6.238;2023-04-15T06:01:12;13.52;;;9.23;;
52322;SDS011;38263;52.920;6.238;2023-04-15T06:03:39;16.63;;;10.65;;
52322;SDS011;38263;52.920;6.238;2023-04-15T06:06:05;15.63;;;10.20;;
52322;SDS011;38263;52.920;6.238;2023-04-15T06:08:31;13.98;;;9.88;;
52322;SDS011;38263;52.920;6.238;2023-04-15T06:10:57;13.32;;;9.35;;
52322;SDS011;38263;52.920;6.238;2023-04-15T06:13:23;13.98;;;9.68;;
52322;SDS011;38263;52.920;6.238;2023-04-15T06:15:49;16.35;;;9.73;;
52322;SDS011;38263;52.920;6.238;2023-04-15T06:18:15;18.40;;;10.10;;
52322;SDS011;38263;52.920;6.238;2023-04-15T06:20:41;13.82;;;9.90;;
52322;SDS011;38263;52.920;6.238;2023-04-15T06:23:07;13.35;;;9.50;;
52322;SDS011;38263;52.920;6.238;2023-04-15T06:25:33;13.38;;;9.25;;
52322;SDS011;38263;52.920;6.238;2023-04-15T06:27:59;13.90;;;10.15;;
52322;SDS011;38263;52.920;6.238;2023-04-15T06:30:25;15.23;;;8.95;;
52322;SDS011;38263;52.920;6.238;2023-04-15T06:32:51;13.07;;;9.48;;
52322;SDS011;38263;52.920;6.238;2023-04-15T06:35:17;13.95;;;8.70;;
52322;SDS011;38263;52.920;6.238;2023-04-15T06:37:43;15.77;;;9.43;;
52322;SDS011;38263;52.920;6.238;2023-04-15T06:40:09;13.23;;;8.70;;
52322;SDS011;38263;52.920;6.238;2023-04-15T06:42:35;12.98;;;8.35;;
52322;SDS011;38263;52.920;6.238;2023-04-15T06:45:02;12.95;;;8.35;;
52322;SDS011;38263;52.920;6.238;2023-04-15T06:47:28;14.02;;;8.98;;
52322;SDS011;38263;52.920;6.238;2023-04-15T06:49:54;12.45;;;9.00;;
52322;SDS011;38263;52.920;6.238;2023-04-15T06:52:20;13.52;;;9.23;;
52322;SDS011;38263;52.920;6.238;2023-04-15T06:54:46;13.48;;;9.00;;
52322;SDS011;38263;52.920;6.238;2023-04-15T06:57:12;15.05;;;9.82;;
52322;SDS011;38263;52.920;6.238;2023-04-15T06:59:38;13.02;;;8.65;;
52322;SDS011;38263;52.920;6.238;2023-04-15T07:02:04;12.30;;;9.13;;
52322;SDS011;38263;52.920;6.238;2023-04-15T07:04:31;15.05;;;8.60;;
52322;SDS011;38263;52.920;6.238;2023-04-15T07:06:57;14.43;;;9.10;;
52322;SDS011;38263;52.920;6.238;2023-04-15T07:09:24;12.65;;;8.90;;
52322;SDS011;38263;52.920;6.238;2023-04-15T07:11:50;15.57;;;9.82;;
52322;SDS011;38263;52.920;6.238;2023-04-15T07:14:16;13.80;;;8.63;;
52322;SDS011;38263;52.920;6.238;2023-04-15T07:16:42;13.98;;;9.65;;
52322;SDS011;38263;52.920;6.238;2023-04-15T07:19:08;11.63;;;8.90;;
52322;SDS011;38263;52.920;6.238;2023-04-15T07:21:34;14.23;;;9.52;;
52322;SDS011;38263;52.920;6.238;2023-04-15T07:24:00;12.70;;;9.40;;
52322;SDS011;38263;52.920;6.238;2023-04-15T07:26:26;15.82;;;8.85;;
52322;SDS011;38263;52.920;6.238;2023-04-15T07:28:52;11.18;;;8.32;;
52322;SDS011;38263;52.920;6.238;2023-04-15T07:31:21;12.35;;;9.10;;
52322;SDS011;38263;52.920;6.238;2023-04-15T07:33:47;15.50;;;9.68;;
52322;SDS011;38263;52.920;6.238;2023-04-15T07:36:13;16.52;;;9.60;;
52322;SDS011;38263;52.920;6.238;2023-04-15T07:38:40;15.48;;;9.00;;
52322;SDS011;38263;52.920;6.238;2023-04-15T07:41:07;18.25;;;11.35;;
52322;SDS011;38263;52.920;6.238;2023-04-15T07:47:30;15.43;;;9.00;;
52322;SDS011;38263;52.920;6.238;2023-04-15T07:50:50;15.30;;;8.95;;
52322;SDS011;38263;52.920;6.238;2023-04-15T07:53:16;13.35;;;8.45;;
52322;SDS011;38263;52.920;6.238;2023-04-15T07:55:43;11.20;;;7.90;;
52322;SDS011;38263;52.920;6.238;2023-04-15T07:58:09;12.35;;;8.43;;
52322;SDS011;38263;52.920;6.238;2023-04-15T08:00:35;13.13;;;8.18;;
52322;SDS011;38263;52.920;6.238;2023-04-15T08:03:02;12.48;;;7.15;;
52322;SDS011;38263;52.920;6.238;2023-04-15T08:05:28;10.30;;;6.68;;
52322;SDS011;38263;52.920;6.238;2023-04-15T08:07:54;7.95;;;6.45;;
52322;SDS011;38263;52.920;6.238;2023-04-15T08:10:20;10.70;;;7.15;;
52322;SDS011;38263;52.920;6.238;2023-04-15T08:12:46;17.95;;;6.90;;
52322;SDS011;38263;52.920;6.238;2023-04-15T08:15:13;9.40;;;6.43;;
52322;SDS011;38263;52.920;6.238;2023-04-15T08:17:39;11.00;;;6.13;;
52322;SDS011;38263;52.920;6.238;2023-04-15T08:20:05;9.70;;;6.18;;
52322;SDS011;38263;52.920;6.238;2023-04-15T08:22:31;6.03;;;4.75;;
52322;SDS011;38263;52.920;6.238;2023-04-15T08:24:58;7.25;;;5.05;;
52322;SDS011;38263;52.920;6.238;2023-04-15T08:27:24;9.73;;;4.50;;
52322;SDS011;38263;52.920;6.238;2023-04-15T08:29:50;6.70;;;4.78;;
52322;SDS011;38263;52.920;6.238;2023-04-15T08:32:16;7.93;;;5.05;;
52322;SDS011;38263;52.920;6.238;2023-04-15T08:34:43;7.50;;;5.22;;
52322;SDS011;38263;52.920;6.238;2023-04-15T08:37:09;6.88;;;4.70;;
52322;SDS011;38263;52.920;6.238;2023-04-15T08:39:35;7.22;;;4.78;;
52322;SDS011;38263;52.920;6.238;2023-04-15T08:42:01;7.68;;;4.75;;
52322;SDS011;38263;52.920;6.238;2023-04-15T08:44:28;7.80;;;4.50;;
52322;SDS011;38263;52.920;6.238;2023-04-15T08:46:56;9.95;;;5.40;;
52322;SDS011;38263;52.920;6.238;2023-04-15T08:49:25;8.07;;;4.88;;
52322;SDS011;38263;52.920;6.238;2023-04-15T08:51:52;8.77;;;5.35;;
52322;SDS011;38263;52.920;6.238;2023-04-15T08:54:20;6.00;;;4.35;;
52322;SDS011;38263;52.920;6.238;2023-04-15T08:56:47;8.48;;;5.60;;
52322;SDS011;38263;52.920;6.238;2023-04-15T08:59:13;6.72;;;4.45;;
52322;SDS011;38263;52.920;6.238;2023-04-15T09:01:40;6.80;;;4.80;;
52322;SDS011;38263;52.920;6.238;2023-04-15T09:04:06;8.13;;;4.45;;
52322;SDS011;38263;52.920;6.238;2023-04-15T09:06:32;6.05;;;4.70;;
52322;SDS011;38263;52.920;6.238;2023-04-15T09:08:59;5.93;;;4.00;;
52322;SDS011;38263;52.920;6.238;2023-04-15T09:11:25;7.28;;;4.40;;
52322;SDS011;38263;52.920;6.238;2023-04-15T09:13:51;5.85;;;4.20;;
52322;SDS011;38263;52.920;6.238;2023-04-15T09:16:17;7.50;;;4.13;;
52322;SDS011;38263;52.920;6.238;2023-04-15T09:18:43;7.25;;;4.18;;
52322;SDS011;38263;52.920;6.238;2023-04-15T09:21:13;7.93;;;4.15;;
52322;SDS011;38263;52.920;6.238;2023-04-15T09:23:40;7.13;;;3.40;;
52322;SDS011;38263;52.920;6.238;2023-04-15T09:26:18;5.82;;;3.35;;
52322;SDS011;38263;52.920;6.238;2023-04-15T09:28:44;8.45;;;4.07;;
52322;SDS011;38263;52.920;6.238;2023-04-15T09:31:10;8.02;;;4.18;;
52322;SDS011;38263;52.920;6.238;2023-04-15T09:33:40;7.22;;;3.70;;
52322;SDS011;38263;52.920;6.238;2023-04-15T09:36:18;4.20;;;3.22;;
52322;SDS011;38263;52.920;6.238;2023-04-15T09:38:57;6.97;;;3.72;;
52322;SDS011;38263;52.920;6.238;2023-04-15T09:41:26;6.05;;;3.17;;
52322;SDS011;38263;52.920;6.238;2023-04-15T09:43:52;6.43;;;3.70;;
52322;SDS011;38263;52.920;6.238;2023-04-15T09:46:18;10.32;;;5.30;;
52322;SDS011;38263;52.920;6.238;2023-04-15T09:48:44;6.18;;;3.78;;
52322;SDS011;38263;52.920;6.238;2023-04-15T09:51:10;4.93;;;3.30;;
52322;SDS011;38263;52.920;6.238;2023-04-15T09:53:36;8.27;;;4.25;;
52322;SDS011;38263;52.920;6.238;2023-04-15T09:56:02;9.38;;;3.45;;
52322;SDS011;38263;52.920;6.238;2023-04-15T09:58:32;7.70;;;3.50;;
52322;SDS011;38263;52.920;6.238;2023-04-15T10:00:59;8.32;;;3.45;;
52322;SDS011;38263;52.920;6.238;2023-04-15T10:03:29;4.95;;;3.05;;
52322;SDS011;38263;52.920;6.238;2023-04-15T10:05:58;6.40;;;3.35;;
52322;SDS011;38263;52.920;6.238;2023-04-15T10:08:29;4.65;;;2.45;;
52322;SDS011;38263;52.920;6.238;2023-04-15T10:10:55;6.75;;;2.75;;
52322;SDS011;38263;52.920;6.238;2023-04-15T10:13:25;7.70;;;2.92;;
52322;SDS011;38263;52.920;6.238;2023-04-15T10:18:25;4.20;;;2.50;;
52322;SDS011;38263;52.920;6.238;2023-04-15T10:20:51;5.15;;;2.53;;
52322;SDS011;38263;52.920;6.238;2023-04-15T10:23:18;3.45;;;2.35;;
52322;SDS011;38263;52.920;6.238;2023-04-15T10:25:45;3.35;;;1.98;;
52322;SDS011;38263;52.920;6.238;2023-04-15T10:28:11;4.88;;;1.70;;
52322;SDS011;38263;52.920;6.238;2023-04-15T10:30:37;3.88;;;1.58;;
52322;SDS011;38263;52.920;6.238;2023-04-15T10:33:03;3.00;;;1.20;;
52322;SDS011;38263;52.920;6.238;2023-04-15T10:35:30;3.85;;;1.75;;
52322;SDS011;38263;52.920;6.238;2023-04-15T10:37:58;4.43;;;2.03;;
52322;SDS011;38263;52.920;6.238;2023-04-15T10:40:28;4.47;;;1.75;;
52322;SDS011;38263;52.920;6.238;2023-04-15T10:42:59;4.50;;;1.80;;
52322;SDS011;38263;52.920;6.238;2023-04-15T10:45:26;3.78;;;1.27;;
52322;SDS011;38263;52.920;6.238;2023-04-15T10:47:56;2.15;;;1.63;;
52322;SDS011;38263;52.920;6.238;2023-04-15T10:50:24;3.95;;;1.33;;
52322;SDS011;38263;52.920;6.238;2023-04-15T10:52:50;3.47;;;1.65;;
52322;SDS011;38263;52.920;6.238;2023-04-15T10:55:21;1.90;;;1.30;;
52322;SDS011;38263;52.920;6.238;2023-04-15T10:57:58;1.90;;;1.70;;
52322;SDS011;38263;52.920;6.238;2023-04-15T11:00:25;2.95;;;1.75;;
52322;SDS011;38263;52.920;6.238;2023-04-15T11:03:09;2.30;;;1.58;;
52322;SDS011;38263;52.920;6.238;2023-04-15T11:08:08;3.20;;;1.73;;
52322;SDS011;38263;52.920;6.238;2023-04-15T11:13:01;5.35;;;1.95;;
52322;SDS011;38263;52.920;6.238;2023-04-15T11:15:35;3.17;;;1.70;;
52322;SDS011;38263;52.920;6.238;2023-04-15T11:20:34;2.28;;;1.60;;
52322;SDS011;38263;52.920;6.238;2023-04-15T11:23:00;5.53;;;3.10;;
52322;SDS011;38263;52.920;6.238;2023-04-15T11:25:27;4.40;;;2.70;;
52322;SDS011;38263;52.920;6.238;2023-04-15T11:27:54;6.45;;;2.60;;
52322;SDS011;38263;52.920;6.238;2023-04-15T11:30:21;4.72;;;2.55;;
52322;SDS011;38263;52.920;6.238;2023-04-15T11:32:48;6.72;;;4.53;;
52322;SDS011;38263;52.920;6.238;2023-04-15T11:35:17;10.50;;;3.67;;
52322;SDS011;38263;52.920;6.238;2023-04-15T11:37:44;2.47;;;2.13;;
52322;SDS011;38263;52.920;6.238;2023-04-15T11:40:10;3.58;;;1.77;;
52322;SDS011;38263;52.920;6.238;2023-04-15T11:42:37;3.40;;;2.00;;
52322;SDS011;38263;52.920;6.238;2023-04-15T11:45:07;9.98;;;5.78;;
52322;SDS011;38263;52.920;6.238;2023-04-15T11:47:34;3.58;;;2.40;;
52322;SDS011;38263;52.920;6.238;2023-04-15T11:50:19;14.52;;;7.72;;
52322;SDS011;38263;52.920;6.238;2023-04-15T11:55:22;6.28;;;2.15;;
52322;SDS011;38263;52.920;6.238;2023-04-15T12:00:33;5.75;;;2.55;;
52322;SDS011;38263;52.920;6.238;2023-04-15T12:03:12;6.55;;;2.05;;
52322;SDS011;38263;52.920;6.238;2023-04-15T12:08:23;5.80;;;2.60;;
52322;SDS011;38263;52.920;6.238;2023-04-15T12:10:50;3.20;;;2.17;;
52322;SDS011;38263;52.920;6.238;2023-04-15T12:13:16;7.25;;;2.50;;
52322;SDS011;38263;52.920;6.238;2023-04-15T12:15:41;6.20;;;2.13;;
52322;SDS011;38263;52.920;6.238;2023-04-15T12:18:15;5.97;;;3.17;;
52322;SDS011;38263;52.920;6.238;2023-04-15T12:20:44;8.75;;;2.80;;
52322;SDS011;38263;52.920;6.238;2023-04-15T12:23:11;5.47;;;2.88;;
52322;SDS011;38263;52.920;6.238;2023-04-15T12:25:37;3.75;;;2.28;;
52322;SDS011;38263;52.920;6.238;2023-04-15T12:28:09;5.30;;;2.35;;
52322;SDS011;38263;52.920;6.238;2023-04-15T12:30:35;5.35;;;1.98;;
52322;SDS011;38263;52.920;6.238;2023-04-15T12:33:02;9.43;;;2.90;;
52322;SDS011;38263;52.920;6.238;2023-04-15T12:35:28;4.47;;;1.90;;
52322;SDS011;38263;52.920;6.238;2023-04-15T12:37:54;3.72;;;2.15;;
52322;SDS011;38263;52.920;6.238;2023-04-15T12:40:20;4.97;;;1.90;;
52322;SDS011;38263;52.920;6.238;2023-04-15T12:42:49;5.97;;;2.10;;
52322;SDS011;38263;52.920;6.238;2023-04-15T12:45:15;5.10;;;1.98;;
52322;SDS011;38263;52.920;6.238;2023-04-15T12:47:41;5.40;;;1.73;;
52322;SDS011;38263;52.920;6.238;2023-04-15T12:50:07;5.47;;;1.88;;
52322;SDS011;38263;52.920;6.238;2023-04-15T12:52:33;10.98;;;6.20;;
52322;SDS011;38263;52.920;6.238;2023-04-15T12:54:59;11.38;;;4.30;;
52322;SDS011;38263;52.920;6.238;2023-04-15T12:57:25;12.30;;;2.53;;
52322;SDS011;38263;52.920;6.238;2023-04-15T12:59:51;5.00;;;2.22;;
52322;SDS011;38263;52.920;6.238;2023-04-15T13:02:17;12.50;;;2.85;;
52322;SDS011;38263;52.920;6.238;2023-04-15T13:04:45;7.57;;;2.30;;
52322;SDS011;38263;52.920;6.238;2023-04-15T13:07:11;6.35;;;2.05;;
52322;SDS011;38263;52.920;6.238;2023-04-15T13:09:38;5.63;;;1.95;;
52322;SDS011;38263;52.920;6.238;2023-04-15T13:12:04;8.25;;;1.70;;
52322;SDS011;38263;52.920;6.238;2023-04-15T13:14:30;7.32;;;1.95;;
52322;SDS011;38263;52.920;6.238;2023-04-15T13:16:56;7.82;;;1.98;;
52322;SDS011;38263;52.920;6.238;2023-04-15T13:19:22;6.78;;;2.28;;
52322;SDS011;38263;52.920;6.238;2023-04-15T13:21:48;5.32;;;1.92;;
52322;SDS011;38263;52.920;6.238;2023-04-15T13:24:14;8.45;;;2.17;;
52322;SDS011;38263;52.920;6.238;2023-04-15T13:26:40;8.93;;;2.05;;
52322;SDS011;38263;52.920;6.238;2023-04-15T13:29:06;6.70;;;1.95;;
52322;SDS011;38263;52.920;6.238;2023-04-15T13:31:32;8.98;;;1.85;;
52322;SDS011;38263;52.920;6.238;2023-04-15T13:33:58;9.30;;;2.08;;
52322;SDS011;38263;52.920;6.238;2023-04-15T13:36:24;9.70;;;1.70;;
52322;SDS011;38263;52.920;6.238;2023-04-15T13:38:51;8.43;;;2.13;;
52322;SDS011;38263;52.920;6.238;2023-04-15T13:41:17;5.22;;;1.50;;
52322;SDS011;38263;52.920;6.238;2023-04-15T13:43:45;7.75;;;2.17;;
52322;SDS011;38263;52.920;6.238;2023-04-15T13:46:11;12.45;;;2.42;;
52322;SDS011;38263;52.920;6.238;2023-04-15T13:48:37;6.90;;;2.28;;
52322;SDS011;38263;52.920;6.238;2023-04-15T13:51:05;3.47;;;1.45;;
52322;SDS011;38263;52.920;6.238;2023-04-15T13:53:31;10.90;;;2.00;;
52322;SDS011;38263;52.920;6.238;2023-04-15T13:55:57;7.00;;;1.88;;
52322;SDS011;38263;52.920;6.238;2023-04-15T13:58:23;6.72;;;1.77;;
52322;SDS011;38263;52.920;6.238;2023-04-15T14:00:49;9.77;;;1.60;;
52322;SDS011;38263;52.920;6.238;2023-04-15T14:03:15;8.75;;;1.80;;
52322;SDS011;38263;52.920;6.238;2023-04-15T14:05:41;10.68;;;2.00;;
52322;SDS011;38263;52.920;6.238;2023-04-15T14:08:07;4.60;;;1.75;;
52322;SDS011;38263;52.920;6.238;2023-04-15T14:10:33;6.30;;;2.15;;
52322;SDS011;38263;52.920;6.238;2023-04-15T14:12:59;7.15;;;3.35;;
52322;SDS011;38263;52.920;6.238;2023-04-15T14:15:25;8.25;;;4.82;;
52322;SDS011;38263;52.920;6.238;2023-04-15T14:17:51;11.05;;;3.97;;
52322;SDS011;38263;52.920;6.238;2023-04-15T14:20:17;12.05;;;3.03;;
52322;SDS011;38263;52.920;6.238;2023-04-15T14:22:43;12.82;;;2.40;;
52322;SDS011;38263;52.920;6.238;2023-04-15T14:25:09;7.07;;;1.88;;
52322;SDS011;38263;52.920;6.238;2023-04-15T14:27:35;7.78;;;2.88;;
52322;SDS011;38263;52.920;6.238;2023-04-15T14:30:01;39.33;;;22.10;;
52322;SDS011;38263;52.920;6.238;2023-04-15T14:32:27;23.17;;;11.45;;
52322;SDS011;38263;52.920;6.238;2023-04-15T14:34:52;11.07;;;3.10;;
52322;SDS011;38263;52.920;6.238;2023-04-15T14:37:18;13.15;;;2.88;;
52322;SDS011;38263;52.920;6.238;2023-04-15T14:39:44;17.30;;;3.97;;
52322;SDS011;38263;52.920;6.238;2023-04-15T14:42:10;10.73;;;3.30;;
52322;SDS011;38263;52.920;6.238;2023-04-15T14:44:36;11.55;;;2.92;;
52322;SDS011;38263;52.920;6.238;2023-04-15T14:47:02;8.68;;;2.88;;
52322;SDS011;38263;52.920;6.238;2023-04-15T14:49:28;14.73;;;2.65;;
52322;SDS011;38263;52.920;6.238;2023-04-15T14:51:54;8.57;;;2.95;;
52322;SDS011;38263;52.920;6.238;2023-04-15T14:54:20;9.48;;;2.72;;
52322;SDS011;38263;52.920;6.238;2023-04-15T14:56:46;12.63;;;2.30;;
52322;SDS011;38263;52.920;6.238;2023-04-15T14:59:12;8.48;;;2.08;;